Time;durP1;ratioP1;P1;durP2;ratioP2;P2;SDS_P1;SDS_P2;PMS_P1;PMS_P2;Temp;Humidity;BMP_temperature;BMP_pressure;BME280_temperature;BME280_humidity;BME280_pressure;Samples;Min_cycle;Max_cycle;Signal;HPM_P1;HPM_P2
2022/06/20 00:01:39;;;;;;;5.20;4.00;;;32.90;34.30;;;;;;5130124;27;45207;-74
2022/06/20 00:04:06;;;;;;;6.05;4.18;;;32.80;34.30;;;;;;5130256;27;45327;-74
2022/06/20 00:06:33;;;;;;;4.88;4.03;;;32.80;34.30;;;;;;5129652;27;45361;-74
2022/06/20 00:09:00;;;;;;;4.57;4.18;;;32.80;34.10;;;;;;5129871;27;45352;-74
2022/06/20 00:11:29;;;;;;;5.35;4.15;;;32.80;34.30;;;;;;5129948;27;45236;-74
2022/06/20 00:13:57;;;;;;;5.43;4.30;;;32.80;34.40;;;;;;5129909;27;45188;-74
2022/06/20 00:16:24;;;;;;;5.32;4.03;;;32.70;34.30;;;;;;5129554;27;45246;-74
2022/06/20 00:18:51;;;;;;;4.85;4.20;;;32.70;34.30;;;;;;5129661;27;45306;-75
2022/06/20 00:21:19;;;;;;;4.93;3.75;;;32.70;34.30;;;;;;5130204;27;45240;-74
2022/06/20 00:23:46;;;;;;;4.85;4.07;;;32.70;34.40;;;;;;5130274;27;45223;-74
2022/06/20 00:26:13;;;;;;;4.88;4.13;;;32.60;34.30;;;;;;5129924;27;45333;-74
2022/06/20 00:28:39;;;;;;;4.88;4.28;;;32.60;34.40;;;;;;5129552;27;45346;-75
2022/06/20 00:31:08;;;;;;;5.00;4.50;;;32.60;34.40;;;;;;5129633;27;45319;-75
2022/06/20 00:33:35;;;;;;;6.47;4.18;;;32.60;34.40;;;;;;5129737;27;45199;-73
2022/06/20 00:36:01;;;;;;;4.78;3.83;;;32.60;34.40;;;;;;5129230;27;45351;-74
2022/06/20 00:38:28;;;;;;;8.52;4.07;;;32.60;34.40;;;;;;5129515;27;46348;-74
2022/06/20 00:40:56;;;;;;;5.32;3.80;;;32.50;34.40;;;;;;5129614;27;45373;-74
2022/06/20 00:43:24;;;;;;;7.28;3.75;;;32.50;34.40;;;;;;5129693;27;45183;-74
2022/06/20 00:45:52;;;;;;;4.28;3.70;;;32.50;34.40;;;;;;5129606;27;45416;-74
2022/06/20 00:48:23;;;;;;;3.83;3.53;;;32.50;34.50;;;;;;5129282;27;46397;-74
2022/06/20 00:50:52;;;;;;;6.50;3.90;;;32.40;34.40;;;;;;5129389;27;45171;-74
2022/06/20 00:53:21;;;;;;;4.55;3.70;;;32.40;34.40;;;;;;5129474;27;45281;-74
2022/06/20 00:55:50;;;;;;;4.97;4.13;;;32.40;34.40;;;;;;5129786;27;45130;-74
2022/06/20 00:58:26;;;;;;;5.13;3.85;;;32.40;34.50;;;;;;5129200;27;47440;-74
2022/06/20 01:00:52;;;;;;;7.88;4.22;;;32.40;34.50;;;;;;5129235;27;45264;-74
2022/06/20 01:03:23;;;;;;;4.57;4.03;;;32.40;34.50;;;;;;5129466;27;45309;-74
2022/06/20 01:05:52;;;;;;;5.15;3.95;;;32.30;34.40;;;;;;5129401;27;45394;-74
2022/06/20 01:08:20;;;;;;;5.85;4.05;;;32.30;34.50;;;;;;5129038;27;47322;-74
2022/06/20 01:10:48;;;;;;;4.72;3.72;;;32.30;34.50;;;;;;5128973;27;45270;-74
2022/06/20 01:13:17;;;;;;;4.18;3.78;;;32.30;34.50;;;;;;5129262;27;45125;-74
2022/06/20 01:15:44;;;;;;;5.38;4.32;;;32.20;34.50;;;;;;5129051;27;45548;-74
2022/06/20 01:18:14;;;;;;;6.75;4.13;;;32.20;34.50;;;;;;5127712;27;45325;-74
2022/06/20 01:20:42;;;;;;;4.40;4.00;;;32.20;34.50;;;;;;5128774;27;45266;-74
2022/06/20 01:23:13;;;;;;;6.20;4.50;;;32.20;34.60;;;;;;5128802;27;45329;-74
2022/06/20 01:26:04;;;;;;;4.68;4.18;;;32.20;34.60;;;;;;5129176;27;45187;-74
2022/06/20 01:28:34;;;;;;;5.88;4.18;;;32.10;34.50;;;;;;5111239;27;45433;-74
2022/06/20 01:31:00;;;;;;;5.15;3.80;;;32.20;34.70;;;;;;5128806;27;45248;-74
2022/06/20 01:33:28;;;;;;;5.80;4.20;;;32.10;34.60;;;;;;5128918;27;45301;-74
2022/06/20 01:38:38;;;;;;;4.95;3.92;;;32.10;34.60;;;;;;5125991;27;45833;-74
2022/06/20 01:43:51;;;;;;;4.75;4.05;;;32.00;34.70;;;;;;5126132;27;45346;-74
2022/06/20 01:46:18;;;;;;;4.63;3.72;;;32.00;34.70;;;;;;5128806;27;45204;-74
2022/06/20 01:48:49;;;;;;;4.05;3.67;;;32.00;34.70;;;;;;5128315;27;46735;-74
2022/06/20 01:51:18;;;;;;;5.70;3.75;;;32.00;34.70;;;;;;5128235;27;45283;-74
2022/06/20 01:53:45;;;;;;;4.80;3.90;;;32.00;34.70;;;;;;5128388;27;45133;-73
2022/06/20 01:56:12;;;;;;;4.15;3.75;;;31.90;34.70;;;;;;5127993;27;45255;-74
2022/06/20 01:58:40;;;;;;;4.45;3.83;;;31.90;34.70;;;;;;5128708;27;46360;-74
2022/06/20 02:01:09;;;;;;;4.95;3.67;;;31.90;34.70;;;;;;5128451;27;45244;-74
2022/06/20 02:03:37;;;;;;;4.20;3.78;;;31.90;34.70;;;;;;5128559;27;45169;-74
2022/06/20 02:06:05;;;;;;;4.75;3.80;;;31.90;34.70;;;;;;5128376;27;45249;-74
2022/06/20 02:08:32;;;;;;;6.93;4.28;;;31.90;34.70;;;;;;5128320;27;46366;-74
2022/06/20 02:11:02;;;;;;;4.90;3.80;;;31.90;34.70;;;;;;5128440;27;45193;-74
2022/06/20 02:13:29;;;;;;;4.10;3.70;;;31.90;34.70;;;;;;5128269;27;45368;-74
2022/06/20 02:15:58;;;;;;;5.20;4.00;;;31.90;35.40;;;;;;5128812;27;45348;-74
2022/06/20 02:18:27;;;;;;;4.80;3.95;;;31.90;34.70;;;;;;5128396;27;46442;-74
2022/06/20 02:20:55;;;;;;;4.57;4.18;;;31.80;34.70;;;;;;5128471;27;45353;-74
2022/06/20 02:23:25;;;;;;;5.15;4.05;;;31.80;34.70;;;;;;5128571;27;45317;-74
2022/06/20 02:25:52;;;;;;;4.00;3.58;;;31.80;34.70;;;;;;5128297;27;45394;-74
2022/06/20 02:28:21;;;;;;;4.00;3.60;;;31.80;35.40;;;;;;5127988;27;46486;-74
2022/06/20 02:30:48;;;;;;;5.07;3.53;;;31.80;34.80;;;;;;5128527;27;45161;-74
2022/06/20 02:33:16;;;;;;;4.00;3.70;;;31.80;34.80;;;;;;5128430;27;45190;-73
2022/06/20 02:35:44;;;;;;;4.28;3.83;;;31.70;34.70;;;;;;5128211;27;45408;-73
2022/06/20 02:38:11;;;;;;;4.00;3.70;;;31.70;34.70;;;;;;5127838;27;46422;-73
2022/06/20 02:40:41;;;;;;;3.92;3.63;;;31.70;34.80;;;;;;5128371;27;45249;-74
2022/06/20 02:43:12;;;;;;;3.90;3.60;;;31.70;34.70;;;;;;5128205;27;45240;-74
2022/06/20 02:45:39;;;;;;;4.07;3.67;;;31.70;34.70;;;;;;5128113;27;45316;-74
2022/06/20 02:48:07;;;;;;;3.97;3.67;;;31.70;34.80;;;;;;5127765;27;46403;-73
2022/06/20 02:50:35;;;;;;;4.10;3.70;;;31.70;34.80;;;;;;5126980;27;45335;-74
2022/06/20 02:53:05;;;;;;;4.07;3.78;;;31.70;34.80;;;;;;5128149;27;45303;-74
2022/06/20 02:55:32;;;;;;;4.13;3.72;;;31.70;34.80;;;;;;5127963;27;45279;-74
2022/06/20 02:58:01;;;;;;;4.15;3.75;;;31.60;34.80;;;;;;5127509;27;45578;-74
2022/06/20 03:00:29;;;;;;;4.32;3.83;;;31.60;34.80;;;;;;5127493;27;45373;-74
2022/06/20 03:02:57;;;;;;;3.83;3.42;;;31.60;34.80;;;;;;5127894;27;45144;-74
2022/06/20 03:05:24;;;;;;;4.20;3.60;;;31.60;34.80;;;;;;5127699;27;45280;-74
2022/06/20 03:07:51;;;;;;;4.18;3.80;;;31.60;34.80;;;;;;5127375;27;46246;-74
2022/06/20 03:10:22;;;;;;;3.88;3.53;;;31.60;34.80;;;;;;5127428;27;45311;-74
2022/06/20 03:12:49;;;;;;;5.63;3.58;;;31.50;34.80;;;;;;5127357;27;45493;-74
2022/06/20 03:15:15;;;;;;;3.70;3.40;;;31.50;34.80;;;;;;5127577;27;45406;-73
2022/06/20 03:17:42;;;;;;;4.50;4.05;;;31.50;34.80;;;;;;5126934;27;46304;-74
2022/06/20 03:20:11;;;;;;;4.65;3.60;;;31.50;34.80;;;;;;5127206;27;45140;-74
2022/06/20 03:22:40;;;;;;;4.32;3.92;;;31.50;34.80;;;;;;5127399;27;45239;-73
2022/06/20 03:25:08;;;;;;;3.85;3.55;;;31.50;34.80;;;;;;5127493;27;45319;-74
2022/06/20 03:27:36;;;;;;;3.70;3.30;;;31.50;34.80;;;;;;5126902;27;46416;-74
2022/06/20 03:30:06;;;;;;;3.70;3.15;;;31.50;34.80;;;;;;5127124;27;45197;-74
2022/06/20 03:32:32;;;;;;;3.80;3.50;;;31.50;34.80;;;;;;5127303;27;45242;-74
2022/06/20 03:34:59;;;;;;;5.53;3.80;;;31.40;34.70;;;;;;5127461;27;45319;-73
2022/06/20 03:37:26;;;;;;;4.60;3.60;;;31.40;35.00;;;;;;5126871;27;45454;-73
2022/06/20 03:39:53;;;;;;;3.75;3.45;;;31.40;34.90;;;;;;5126989;27;45229;-72
2022/06/20 03:42:19;;;;;;;4.28;3.72;;;31.40;35.00;;;;;;5129320;27;45359;-73
2022/06/20 03:44:52;;;;;;;4.60;3.50;;;31.40;35.00;;;;;;5131282;27;45323;-73
2022/06/20 03:47:20;;;;;;;4.00;3.60;;;31.40;35.00;;;;;;5130735;27;45310;-73
2022/06/20 03:49:49;;;;;;;3.60;3.28;;;31.40;35.80;;;;;;5131109;27;45411;-73
2022/06/20 03:52:20;;;;;;;4.00;3.60;;;31.30;35.30;;;;;;5130910;27;45190;-74
2022/06/20 03:54:50;;;;;;;4.47;3.55;;;31.30;35.70;;;;;;5130701;27;45386;-73
2022/06/20 03:57:20;;;;;;;4.93;3.92;;;31.30;35.40;;;;;;5130495;27;45221;-73
2022/06/20 03:59:49;;;;;;;4.38;3.40;;;31.20;35.30;;;;;;5129970;27;45378;-73
2022/06/20 04:02:19;;;;;;;3.95;3.35;;;31.20;35.20;;;;;;5130118;27;45235;-73
2022/06/20 04:04:48;;;;;;;4.38;3.38;;;31.20;36.20;;;;;;5130164;27;45232;-73
2022/06/20 04:07:18;;;;;;;3.85;3.42;;;31.20;35.40;;;;;;5130147;27;46346;-73
2022/06/20 04:12:35;;;;;;;3.60;3.00;;;31.10;35.40;;;;;;5128051;27;45308;-73
2022/06/20 04:15:10;;;;;;;4.07;3.67;;;31.00;35.30;;;;;;5130248;27;45451;-74
2022/06/20 04:20:28;;;;;;;4.55;3.25;;;31.00;35.50;;;;;;5130229;27;45195;-73
2022/06/20 04:22:55;;;;;;;3.50;3.20;;;31.00;35.50;;;;;;5129932;27;45173;-73
2022/06/20 04:25:28;;;;;;;3.60;3.08;;;31.00;35.50;;;;;;5130224;27;45187;-74
2022/06/20 04:27:57;;;;;;;3.50;3.20;;;30.90;35.40;;;;;;5129336;27;45455;-73
2022/06/20 04:30:28;;;;;;;3.50;3.20;;;30.90;35.60;;;;;;5130018;27;45245;-73
2022/06/20 04:32:55;;;;;;;3.30;3.10;;;30.90;35.80;;;;;;5129838;27;45200;-74
2022/06/20 04:35:24;;;;;;;5.57;3.22;;;30.80;35.70;;;;;;5129783;27;45451;-73
2022/06/20 04:37:52;;;;;;;4.55;3.10;;;30.80;35.70;;;;;;5129530;27;45934;-73
2022/06/20 04:40:20;;;;;;;3.90;3.25;;;30.80;35.70;;;;;;5129569;27;45285;-73
2022/06/20 04:42:48;;;;;;;4.30;3.47;;;30.80;35.90;;;;;;5129600;27;45187;-73
2022/06/20 04:45:17;;;;;;;3.95;3.10;;;30.70;35.90;;;;;;5129752;27;45323;-74
2022/06/20 04:47:48;;;;;;;4.35;3.28;;;30.70;36.00;;;;;;5129266;27;46504;-73
2022/06/20 04:50:15;;;;;;;4.40;3.40;;;30.70;35.90;;;;;;5129677;27;45228;-73
2022/06/20 04:52:42;;;;;;;3.65;3.28;;;30.70;36.20;;;;;;5129383;27;45275;-73
2022/06/20 04:55:13;;;;;;;3.10;2.85;;;30.70;36.40;;;;;;5129757;27;45362;-73
2022/06/20 04:57:40;;;;;;;4.90;3.67;;;30.70;36.30;;;;;;5129136;27;46695;-73
2022/06/20 05:00:09;;;;;;;3.88;3.40;;;30.70;36.20;;;;;;5128796;27;45358;-72
2022/06/20 05:02:35;;;;;;;3.45;3.15;;;30.70;36.30;;;;;;5128789;27;45199;-73
2022/06/20 05:05:05;;;;;;;2.95;2.75;;;30.60;36.10;;;;;;5129524;27;45179;-73
2022/06/20 05:07:34;;;;;;;3.90;3.33;;;30.60;35.90;;;;;;5129114;27;46347;-73
2022/06/20 05:10:04;;;;;;;3.35;3.10;;;30.60;35.90;;;;;;5129275;27;45197;-74
2022/06/20 05:12:36;;;;;;;3.40;3.10;;;30.60;36.00;;;;;;5129234;27;45334;-73
2022/06/20 05:15:06;;;;;;;3.22;3.03;;;30.50;35.90;;;;;;5129581;27;45364;-73
2022/06/20 05:17:33;;;;;;;3.78;2.83;;;30.50;36.00;;;;;;5128588;27;46416;-73
2022/06/20 05:20:01;;;;;;;3.20;2.78;;;30.50;36.00;;;;;;5128895;27;45271;-73
2022/06/20 05:22:32;;;;;;;3.35;3.05;;;30.50;36.20;;;;;;5129152;27;45192;-73
2022/06/20 05:24:59;;;;;;;3.13;2.80;;;30.50;35.90;;;;;;5129304;27;45317;-74
2022/06/20 05:27:28;;;;;;;3.72;2.92;;;30.50;35.90;;;;;;5128562;27;45188;-74
2022/06/20 05:29:55;;;;;;;3.45;3.15;;;30.50;35.90;;;;;;5128771;27;45269;-74
2022/06/20 05:32:24;;;;;;;3.50;3.20;;;30.50;36.10;;;;;;5128971;27;45371;-73
2022/06/20 05:34:54;;;;;;;3.28;2.70;;;30.40;36.10;;;;;;5128748;27;45345;-73
2022/06/20 05:37:25;;;;;;;5.00;2.95;;;30.40;36.00;;;;;;5128753;27;46389;-74
2022/06/20 05:39:55;;;;;;;4.18;3.33;;;30.40;36.00;;;;;;5129069;27;45211;-73
2022/06/20 05:42:22;;;;;;;3.22;2.95;;;30.40;35.90;;;;;;5128933;27;45428;-74
2022/06/20 05:44:48;;;;;;;3.50;3.20;;;30.40;36.10;;;;;;5129403;27;45257;-73
2022/06/20 05:47:25;;;;;;;3.65;2.90;;;30.40;36.10;;;;;;5128334;27;45479;-73
2022/06/20 05:49:54;;;;;;;4.05;3.15;;;30.40;35.90;;;;;;5128628;27;45186;-73
2022/06/20 05:52:23;;;;;;;3.47;3.17;;;30.40;35.90;;;;;;5128560;27;45308;-73
2022/06/20 05:54:54;;;;;;;3.30;3.10;;;30.40;35.90;;;;;;5128761;27;45184;-73
2022/06/20 05:57:22;;;;;;;5.75;3.22;;;30.40;36.00;;;;;;5128550;27;46483;-73
2022/06/20 05:59:49;;;;;;;2.88;2.67;;;30.40;36.00;;;;;;5129245;27;45229;-74
2022/06/20 06:02:22;;;;;;;3.30;3.10;;;30.40;35.90;;;;;;5128703;27;45213;-72
2022/06/20 06:04:53;;;;;;;3.67;3.38;;;30.40;35.90;;;;;;5127876;27;45314;-72
2022/06/20 06:07:23;;;;;;;3.53;3.00;;;30.40;35.80;;;;;;5128311;27;45263;-73
2022/06/20 06:09:51;;;;;;;3.40;3.10;;;30.40;36.00;;;;;;5128673;27;45312;-74
2022/06/20 06:12:22;;;;;;;3.55;3.25;;;30.40;36.50;;;;;;5128728;27;45219;-73
2022/06/20 06:14:51;;;;;;;3.13;2.88;;;30.40;35.90;;;;;;5129230;27;45278;-74
2022/06/20 06:17:20;;;;;;;3.60;3.30;;;30.40;35.80;;;;;;5128407;27;46307;-73
2022/06/20 06:19:49;;;;;;;4.32;3.22;;;30.40;36.20;;;;;;5128554;27;45321;-74
2022/06/20 06:22:17;;;;;;;3.60;3.30;;;30.40;35.90;;;;;;5129109;27;45196;-74
2022/06/20 06:24:45;;;;;;;3.20;3.00;;;30.40;36.10;;;;;;5129031;27;45255;-74
2022/06/20 06:27:16;;;;;;;3.92;2.97;;;30.40;36.90;;;;;;5129661;27;47318;-74
2022/06/20 06:29:45;;;;;;;3.38;3.00;;;30.40;35.90;;;;;;5128711;27;45198;-74
2022/06/20 06:32:15;;;;;;;3.47;3.17;;;30.40;36.00;;;;;;5128333;27;45244;-74
2022/06/20 06:34:46;;;;;;;5.18;3.00;;;30.40;36.20;;;;;;5128586;27;45454;-74
2022/06/20 06:37:14;;;;;;;5.10;3.20;;;30.30;36.20;;;;;;5128180;27;45278;-74
2022/06/20 06:39:50;;;;;;;3.85;3.20;;;30.30;36.10;;;;;;5128226;27;45181;-74
2022/06/20 06:42:17;;;;;;;5.38;3.10;;;30.20;36.40;;;;;;5126793;27;45434;-74
2022/06/20 06:44:48;;;;;;;6.50;3.05;;;30.20;36.90;;;;;;5127343;27;45450;-74
2022/06/20 06:47:17;;;;;;;5.32;3.17;;;30.20;36.70;;;;;;5127899;27;46304;-75
2022/06/20 06:49:45;;;;;;;7.55;3.40;;;30.20;36.90;;;;;;5127820;27;45252;-74
2022/06/20 06:52:14;;;;;;;7.60;3.63;;;30.20;36.80;;;;;;5128899;27;45267;-74
2022/06/20 06:54:54;;;;;;;7.20;3.65;;;30.20;37.70;;;;;;5132199;27;45228;-74
2022/06/20 06:57:24;;;;;;;5.68;3.90;;;30.20;37.00;;;;;;5131977;27;47354;-74
2022/06/20 06:59:54;;;;;;;8.73;3.55;;;30.20;37.00;;;;;;5127652;27;45308;-74
2022/06/20 07:02:22;;;;;;;10.00;3.53;;;30.20;37.40;;;;;;5126954;27;45328;-73
2022/06/20 07:04:53;;;;;;;8.50;4.05;;;30.20;37.10;;;;;;5127961;27;45370;-73
2022/06/20 07:07:22;;;;;;;10.10;5.72;;;30.20;37.30;;;;;;5127537;27;46416;-76
2022/06/20 07:09:50;;;;;;;8.73;4.25;;;30.20;37.50;;;;;;5127364;27;45368;-73
2022/06/20 07:12:18;;;;;;;9.25;5.15;;;30.20;37.70;;;;;;5127443;27;45259;-74
2022/06/20 07:14:47;;;;;;;14.65;5.00;;;30.20;37.90;;;;;;5127468;27;45225;-74
2022/06/20 07:17:18;;;;;;;12.25;5.88;;;30.20;37.60;;;;;;5129047;27;46443;-74
2022/06/20 07:19:48;;;;;;;8.70;5.15;;;30.30;37.70;;;;;;5130630;27;45171;-74
2022/06/20 07:22:15;;;;;;;11.20;5.55;;;30.30;37.60;;;;;;5131142;27;45329;-74
2022/06/20 07:24:42;;;;;;;11.55;5.47;;;30.30;37.60;;;;;;5131267;27;45138;-74
2022/06/20 07:27:19;;;;;;;6.68;4.63;;;30.30;37.90;;;;;;5130885;27;46385;-74
2022/06/20 07:29:47;;;;;;;4.28;3.88;;;30.30;37.90;;;;;;5130858;27;45209;-74
2022/06/20 07:32:18;;;;;;;6.32;4.30;;;30.30;38.10;;;;;;5131059;27;45359;-74
2022/06/20 07:34:46;;;;;;;5.25;4.20;;;30.30;38.00;;;;;;5130727;27;45356;-74
2022/06/20 07:37:14;;;;;;;6.68;4.22;;;30.30;38.00;;;;;;5130824;27;45303;-74
2022/06/20 07:39:44;;;;;;;5.20;4.70;;;30.40;38.00;;;;;;5130798;27;45412;-74
2022/06/20 07:42:14;;;;;;;8.82;4.72;;;30.40;38.10;;;;;;5130590;27;45276;-74
2022/06/20 07:44:43;;;;;;;8.02;4.35;;;30.40;39.00;;;;;;5130807;27;45406;-74
2022/06/20 07:47:12;;;;;;;6.80;4.22;;;30.40;38.20;;;;;;5130568;27;46686;-74
2022/06/20 07:49:43;;;;;;;7.03;3.78;;;30.40;38.20;;;;;;5130689;27;45236;-74
2022/06/20 07:52:12;;;;;;;6.70;3.50;;;30.40;37.70;;;;;;5130496;27;45159;-74
2022/06/20 07:54:40;;;;;;;6.25;3.55;;;30.40;38.40;;;;;;5130566;27;45414;-74
2022/06/20 07:57:09;;;;;;;6.28;3.47;;;30.40;38.30;;;;;;5130332;27;46409;-73
2022/06/20 07:59:38;;;;;;;6.47;3.83;;;30.50;39.00;;;;;;5130279;27;45486;-74
2022/06/20 08:02:07;;;;;;;8.98;4.20;;;30.40;38.60;;;;;;5130836;27;45236;-74
2022/06/20 08:04:35;;;;;;;3.78;3.33;;;30.50;38.10;;;;;;5130717;27;45383;-74
2022/06/20 08:07:06;;;;;;;5.25;3.78;;;30.50;38.90;;;;;;5130173;27;45358;-74
2022/06/20 08:09:38;;;;;;;5.10;3.70;;;30.50;38.50;;;;;;5130313;27;45213;-75
2022/06/20 08:12:08;;;;;;;5.88;3.33;;;30.50;38.80;;;;;;5130394;27;45317;-74
2022/06/20 08:14:38;;;;;;;7.68;3.50;;;30.50;38.70;;;;;;5130599;27;45230;-75
2022/06/20 08:17:08;;;;;;;4.05;3.45;;;30.60;38.70;;;;;;5129420;27;47003;-74
2022/06/20 08:19:34;;;;;;;7.93;3.00;;;30.50;38.30;;;;;;5130504;27;45287;-74
2022/06/20 08:22:05;;;;;;;4.63;3.00;;;30.50;38.50;;;;;;5129485;27;45297;-75
2022/06/20 08:24:33;;;;;;;4.90;3.10;;;30.50;38.80;;;;;;5129603;27;45269;-75
2022/06/20 08:27:03;;;;;;;4.82;3.05;;;30.50;40.00;;;;;;5129421;27;46411;-75
2022/06/20 08:29:33;;;;;;;6.28;3.03;;;30.50;38.60;;;;;;5129842;27;45297;-75
2022/06/20 08:32:03;;;;;;;6.20;3.08;;;30.50;38.70;;;;;;5129773;27;45257;-75
2022/06/20 08:34:32;;;;;;;7.93;3.65;;;30.50;39.00;;;;;;5130243;27;45445;-75
2022/06/20 08:37:01;;;;;;;4.15;2.67;;;30.50;38.70;;;;;;5129734;27;45469;-75
2022/06/20 08:39:32;;;;;;;5.45;3.10;;;30.50;38.80;;;;;;5129993;27;45317;-75
2022/06/20 08:42:25;;;;;;;4.95;3.17;;;30.50;38.70;;;;;;5129400;27;45321;-75
2022/06/20 08:45:22;;;;;;;4.47;3.30;;;30.50;39.00;;;;;;5126045;27;45434;-74
2022/06/20 08:48:08;;;;;;;4.70;3.60;;;30.60;38.90;;;;;;5121434;27;45249;-74
2022/06/20 08:50:51;;;;;;;7.15;3.50;;;30.70;39.40;;;;;;5128845;27;45333;-74
2022/06/20 08:53:32;;;;;;;6.88;3.08;;;30.70;38.90;;;;;;5129025;27;45216;-75
2022/06/20 08:56:21;;;;;;;4.55;2.95;;;30.70;38.90;;;;;;5128945;27;45278;-75
2022/06/20 08:58:55;;;;;;;9.23;3.63;;;30.80;38.70;;;;;;5128380;27;45305;-74
2022/06/20 09:01:25;;;;;;;4.72;3.05;;;30.70;38.60;;;;;;5128332;27;45258;-74
2022/06/20 09:04:14;;;;;;;4.85;3.38;;;30.80;39.00;;;;;;5128519;27;45298;-75
2022/06/20 09:06:58;;;;;;;5.50;3.50;;;30.80;39.70;;;;;;5128845;27;45556;-75
2022/06/20 09:09:54;;;;;;;5.88;3.28;;;30.90;39.00;;;;;;5119938;27;45228;-75
2022/06/20 09:12:34;;;;;;;3.92;3.20;;;30.90;39.10;;;;;;5120803;27;45486;-75
2022/06/20 09:15:23;;;;;;;5.40;3.20;;;31.00;39.20;;;;;;5128684;27;45206;-74
2022/06/20 09:17:55;;;;;;;4.85;3.00;;;31.00;39.10;;;;;;5127918;27;45431;-74
2022/06/20 09:20:27;;;;;;;6.22;3.50;;;31.00;39.10;;;;;;5128432;27;45289;-74
2022/06/20 09:23:09;;;;;;;6.60;3.20;;;31.10;39.20;;;;;;5128127;27;45254;-74
2022/06/20 09:25:41;;;;;;;5.35;3.47;;;31.10;39.10;;;;;;5128337;27;45355;-74
2022/06/20 09:28:35;;;;;;;5.50;3.10;;;31.10;39.00;;;;;;5128463;27;45241;-74
2022/06/20 09:31:04;;;;;;;6.53;3.63;;;31.10;38.90;;;;;;5126157;27;46686;-74
2022/06/20 09:33:53;;;;;;;8.25;3.50;;;31.10;38.90;;;;;;5127743;27;45255;-75
2022/06/20 09:37:02;;;;;;;7.75;3.83;;;31.10;38.90;;;;;;5128162;27;45246;-74
2022/06/20 09:39:35;;;;;;;6.78;3.53;;;31.20;38.80;;;;;;5127293;27;45345;-75
2022/06/20 09:42:09;;;;;;;6.53;3.75;;;31.20;38.50;;;;;;5127758;27;46398;-75
2022/06/20 09:44:42;;;;;;;6.28;3.67;;;31.20;38.70;;;;;;5128070;27;45210;-75
2022/06/20 09:47:18;;;;;;;5.38;3.65;;;31.30;38.80;;;;;;5128175;27;45176;-74
2022/06/20 09:49:48;;;;;;;5.32;3.30;;;31.30;38.70;;;;;;5128352;27;45230;-75
2022/06/20 09:52:18;;;;;;;6.70;3.45;;;31.40;39.20;;;;;;5127601;27;46661;-74
2022/06/20 09:54:52;;;;;;;3.55;3.25;;;31.50;38.80;;;;;;5127602;27;45179;-75
2022/06/20 09:57:27;;;;;;;4.13;3.70;;;31.40;38.40;;;;;;5127999;27;45238;-75
2022/06/20 09:59:59;;;;;;;6.63;3.20;;;31.50;38.50;;;;;;5128158;27;45183;-75
2022/06/20 10:02:29;;;;;;;5.32;3.53;;;31.50;38.00;;;;;;5127577;27;45298;-75
2022/06/20 10:05:02;;;;;;;3.80;2.90;;;31.50;37.80;;;;;;5127776;27;45338;-75
2022/06/20 10:07:30;;;;;;;4.70;3.03;;;31.50;38.00;;;;;;5127636;27;45348;-75
2022/06/20 10:10:00;;;;;;;5.18;3.20;;;31.60;37.60;;;;;;5127683;27;45520;-74
2022/06/20 10:12:30;;;;;;;3.30;3.00;;;31.60;37.90;;;;;;5127363;27;47387;-74
2022/06/20 10:15:03;;;;;;;4.13;3.10;;;31.70;37.80;;;;;;5127113;27;45269;-74
2022/06/20 10:17:34;;;;;;;8.65;3.30;;;31.80;37.70;;;;;;5126852;27;45203;-74
2022/06/20 10:20:06;;;;;;;4.75;2.95;;;31.80;37.40;;;;;;5127412;27;45346;-74
2022/06/20 10:22:40;;;;;;;3.25;2.63;;;31.80;37.10;;;;;;5127014;27;46366;-74
2022/06/20 10:25:49;;;;;;;5.60;3.00;;;31.80;36.70;;;;;;5127309;27;45271;-74
2022/06/20 10:28:17;;;;;;;3.63;3.00;;;31.90;36.60;;;;;;5084142;28;45337;-74
2022/06/20 10:30:48;;;;;;;5.43;3.08;;;32.00;36.40;;;;;;5083539;28;45735;-73
2022/06/20 10:33:34;;;;;;;3.95;3.15;;;32.10;36.50;;;;;;5106629;27;46413;-73
2022/06/20 10:36:15;;;;;;;5.20;2.97;;;32.10;36.30;;;;;;5126892;27;45359;-74
2022/06/20 10:38:42;;;;;;;5.55;3.00;;;32.20;36.20;;;;;;5127063;27;45232;-73
2022/06/20 10:41:10;;;;;;;4.72;2.90;;;32.20;36.00;;;;;;5127313;27;45320;-73
2022/06/20 10:43:46;;;;;;;6.40;3.58;;;32.30;35.90;;;;;;5126611;27;46353;-73
2022/06/20 10:46:19;;;;;;;6.35;3.35;;;32.30;35.60;;;;;;5126864;27;45223;-74
2022/06/20 10:49:15;;;;;;;4.90;2.90;;;32.30;35.60;;;;;;5126989;27;45251;-74
2022/06/20 10:51:47;;;;;;;6.32;3.22;;;32.30;35.50;;;;;;5130723;27;45310;-74
2022/06/20 10:54:23;;;;;;;8.32;3.47;;;32.40;35.50;;;;;;5130399;27;46662;-74
2022/06/20 10:56:52;;;;;;;4.63;3.08;;;32.40;35.50;;;;;;5130524;27;45240;-74
2022/06/20 10:59:28;;;;;;;4.32;2.92;;;32.40;35.40;;;;;;5130386;27;45204;-74
2022/06/20 11:01:58;;;;;;;5.05;2.88;;;32.50;35.40;;;;;;5130297;27;45336;-73
2022/06/20 11:04:48;;;;;;;3.85;2.80;;;32.60;35.30;;;;;;5129982;27;46260;-74
2022/06/20 11:07:22;;;;;;;3.55;3.13;;;32.70;35.50;;;;;;5130412;27;45328;-74
2022/06/20 11:09:56;;;;;;;6.50;2.80;;;32.70;35.30;;;;;;5130468;27;45246;-74
2022/06/20 11:12:27;;;;;;;3.78;2.80;;;32.70;35.00;;;;;;5130574;27;45560;-74
2022/06/20 11:14:56;;;;;;;3.85;3.17;;;32.70;34.80;;;;;;5130233;27;45517;-74
2022/06/20 11:17:27;;;;;;;6.07;3.00;;;32.60;34.70;;;;;;5129820;27;45431;-74
2022/06/20 11:19:57;;;;;;;4.10;2.90;;;32.70;35.00;;;;;;5130405;27;45440;-74
2022/06/20 11:22:37;;;;;;;3.53;2.78;;;32.70;35.00;;;;;;5130479;27;45291;-74
2022/06/20 11:25:13;;;;;;;5.80;3.17;;;32.70;35.70;;;;;;5130071;27;46476;-74
2022/06/20 11:28:01;;;;;;;6.55;2.88;;;32.70;35.30;;;;;;5130138;27;45314;-75
2022/06/20 11:30:31;;;;;;;5.22;3.05;;;32.70;35.00;;;;;;5130065;27;45306;-74
2022/06/20 11:34:00;;;;;;;8.05;3.33;;;32.80;34.80;;;;;;5130245;27;45198;-74
2022/06/20 11:36:13;;;;;;;8.27;2.80;;;32.60;34.50;;;;;;5129522;27;46611;-74
2022/06/20 11:39:09;;;;;;;7.93;3.40;;;32.60;34.50;;;;;;5129788;27;45308;-74
2022/06/20 11:41:37;;;;;;;5.15;3.22;;;32.40;36.70;;;;;;5129670;27;45459;-74
2022/06/20 11:44:31;;;;;;;6.20;3.30;;;32.20;37.70;;;;;;5130092;27;45158;-74
2022/06/20 11:47:34;;;;;;;9.07;3.40;;;32.10;38.60;;;;;;5129775;27;45301;-74
2022/06/20 11:50:16;;;;;;;8.38;3.55;;;31.90;38.90;;;;;;5086080;28;45560;-74
2022/06/20 11:52:45;;;;;;;7.68;3.63;;;31.90;39.10;;;;;;5086210;28;45276;-74
2022/06/20 11:55:15;;;;;;;6.22;3.08;;;31.80;39.40;;;;;;5111429;27;45482;-74
2022/06/20 11:57:45;;;;;;;5.18;3.30;;;31.80;39.30;;;;;;5129599;27;45260;-74
2022/06/20 12:00:14;;;;;;;6.03;3.20;;;31.80;39.40;;;;;;5129551;27;45296;-74
2022/06/20 12:02:48;;;;;;;4.25;3.35;;;31.80;39.40;;;;;;5128956;27;45272;-74
2022/06/20 12:05:36;;;;;;;3.83;2.60;;;31.80;39.30;;;;;;5130083;27;45442;-74
2022/06/20 12:08:07;;;;;;;7.18;3.05;;;31.80;39.20;;;;;;5129590;27;45141;-74
2022/06/20 12:10:38;;;;;;;4.65;2.90;;;31.70;38.90;;;;;;5129389;27;45366;-74
2022/06/20 12:13:09;;;;;;;7.00;2.97;;;31.70;39.00;;;;;;5129795;27;45298;-74
2022/06/20 12:15:40;;;;;;;7.05;2.90;;;31.70;39.30;;;;;;5129627;27;45215;-73
2022/06/20 12:18:23;;;;;;;3.08;2.70;;;31.60;38.90;;;;;;5129229;27;45486;-74
2022/06/20 12:23:40;;;;;;;3.75;2.90;;;31.60;39.00;;;;;;5129897;27;45218;-75
2022/06/20 12:26:10;;;;;;;8.30;3.30;;;31.80;38.80;;;;;;5129619;27;45185;-75
2022/06/20 12:28:38;;;;;;;5.72;3.20;;;31.80;38.30;;;;;;5129356;27;46347;-75
2022/06/20 12:31:17;;;;;;;4.32;2.75;;;31.90;38.00;;;;;;5129128;27;45255;-75
2022/06/20 12:33:45;;;;;;;2.97;2.33;;;31.90;37.80;;;;;;5129428;27;45284;-75
2022/06/20 12:36:19;;;;;;;4.97;2.20;;;31.90;37.80;;;;;;5129371;27;45270;-76
2022/06/20 12:38:49;;;;;;;6.80;3.17;;;31.90;37.70;;;;;;5128896;27;45252;-76
2022/06/20 12:41:18;;;;;;;6.30;2.60;;;31.90;37.70;;;;;;5129164;27;45212;-76
2022/06/20 12:43:49;;;;;;;4.13;2.50;;;31.90;37.70;;;;;;5129190;27;45313;-75
2022/06/20 12:46:37;;;;;;;3.65;2.67;;;32.00;37.90;;;;;;5129376;27;45386;-76
2022/06/20 12:49:13;;;;;;;3.50;2.35;;;32.00;37.60;;;;;;5128681;27;45346;-75
2022/06/20 12:51:48;;;;;;;6.90;2.20;;;32.00;37.70;;;;;;5128693;27;45267;-76
2022/06/20 12:54:22;;;;;;;4.47;2.60;;;32.20;37.60;;;;;;5129055;27;45217;-76
2022/06/20 12:56:58;;;;;;;3.40;2.17;;;32.20;37.50;;;;;;5129081;27;45187;-76
2022/06/20 12:59:48;;;;;;;3.08;2.00;;;32.20;37.30;;;;;;5128783;27;47589;-75
2022/06/20 13:02:18;;;;;;;3.75;2.10;;;32.20;37.20;;;;;;5128734;27;45150;-75
2022/06/20 13:05:23;;;;;;;2.38;1.83;;;32.20;37.10;;;;;;5128992;27;45595;-75
2022/06/20 13:08:28;;;;;;;2.58;2.00;;;32.10;36.90;;;;;;5128782;27;45271;-75
2022/06/20 13:11:01;;;;;;;5.18;2.03;;;32.10;37.20;;;;;;5084534;28;46379;-75
2022/06/20 13:13:48;;;;;;;2.60;1.85;;;32.20;36.90;;;;;;5084803;27;45305;-73
2022/06/20 13:16:19;;;;;;;3.28;2.00;;;32.20;36.90;;;;;;5111976;27;45325;-73
2022/06/20 13:19:11;;;;;;;3.13;1.80;;;32.30;36.90;;;;;;5128505;27;45169;-73
2022/06/20 13:21:41;;;;;;;2.03;1.77;;;32.40;37.40;;;;;;5128506;27;47355;-73
2022/06/20 13:24:29;;;;;;;3.00;2.00;;;32.40;36.50;;;;;;5128382;27;45294;-73